sensor_id;sensor_type;location;lat;lon;timestamp;P1;durP1;ratioP1;P2;durP2;ratioP2
60718;SDS011;46567;51.660;5.824;2023-04-05T00:00:38;10.6;;;5.6;;
60718;SDS011;46567;51.660;5.824;2023-04-05T00:05:38;11.5;;;6.4;;
60718;SDS011;46567;51.660;5.824;2023-04-05T00:10:38;10.9;;;6.1;;
60718;SDS011;46567;51.660;5.824;2023-04-05T00:15:38;10.1;;;6.4;;
60718;SDS011;46567;51.660;5.824;2023-04-05T00:20:38;8.7;;;5.2;;
60718;SDS011;46567;51.660;5.824;2023-04-05T00:25:38;9.1;;;5.5;;
60718;SDS011;46567;51.660;5.824;2023-04-05T00:30:38;8.7;;;5.0;;
60718;SDS011;46567;51.660;5.824;2023-04-05T00:35:38;9.6;;;5.7;;
60718;SDS011;46567;51.660;5.824;2023-04-05T00:40:38;9.8;;;6.2;;
60718;SDS011;46567;51.660;5.824;2023-04-05T00:45:38;9.9;;;5.7;;
60718;SDS011;46567;51.660;5.824;2023-04-05T00:50:38;10.5;;;5.8;;
60718;SDS011;46567;51.660;5.824;2023-04-05T00:55:38;10.7;;;5.9;;
60718;SDS011;46567;51.660;5.824;2023-04-05T01:00:38;10.9;;;5.7;;
60718;SDS011;46567;51.660;5.824;2023-04-05T01:05:44;9.1;;;6.0;;
60718;SDS011;46567;51.660;5.824;2023-04-05T01:10:43;9.3;;;6.4;;
60718;SDS011;46567;51.660;5.824;2023-04-05T01:15:38;11.3;;;6.3;;
60718;SDS011;46567;51.660;5.824;2023-04-05T01:20:43;9.1;;;6.1;;
60718;SDS011;46567;51.660;5.824;2023-04-05T01:27:10;10.5;;;6.0;;
60718;SDS011;46567;51.660;5.824;2023-04-05T01:32:23;9.1;;;5.5;;
60718;SDS011;46567;51.660;5.824;2023-04-05T01:36:49;11.5;;;6.3;;
60718;SDS011;46567;51.660;5.824;2023-04-05T01:40:38;11.0;;;6.2;;
60718;SDS011;46567;51.660;5.824;2023-04-05T01:45:38;8.1;;;5.4;;
60718;SDS011;46567;51.660;5.824;2023-04-05T01:50:38;13.1;;;6.1;;
60718;SDS011;46567;51.660;5.824;2023-04-05T01:55:38;8.6;;;5.9;;
60718;SDS011;46567;51.660;5.824;2023-04-05T02:00:38;9.2;;;6.2;;
60718;SDS011;46567;51.660;5.824;2023-04-05T02:05:38;10.1;;;6.0;;
60718;SDS011;46567;51.660;5.824;2023-04-05T02:10:38;10.2;;;5.4;;
60718;SDS011;46567;51.660;5.824;2023-04-05T02:15:38;8.6;;;5.0;;
60718;SDS011;46567;51.660;5.824;2023-04-05T02:20:38;9.2;;;5.3;;
60718;SDS011;46567;51.660;5.824;2023-04-05T02:25:38;8.9;;;5.5;;
60718;SDS011;46567;51.660;5.824;2023-04-05T02:30:38;9.0;;;5.4;;
60718;SDS011;46567;51.660;5.824;2023-04-05T02:35:38;9.3;;;5.7;;
60718;SDS011;46567;51.660;5.824;2023-04-05T02:40:38;9.4;;;5.5;;
60718;SDS011;46567;51.660;5.824;2023-04-05T02:45:38;9.6;;;5.4;;
60718;SDS011;46567;51.660;5.824;2023-04-05T02:50:38;9.5;;;5.6;;
60718;SDS011;46567;51.660;5.824;2023-04-05T02:55:38;8.1;;;5.0;;
60718;SDS011;46567;51.660;5.824;2023-04-05T03:00:38;8.6;;;5.5;;
60718;SDS011;46567;51.660;5.824;2023-04-05T03:05:38;9.7;;;5.8;;
60718;SDS011;46567;51.660;5.824;2023-04-05T03:10:38;8.2;;;5.5;;
60718;SDS011;46567;51.660;5.824;2023-04-05T03:15:38;9.2;;;5.4;;
60718;SDS011;46567;51.660;5.824;2023-04-05T03:20:38;12.8;;;6.2;;
60718;SDS011;46567;51.660;5.824;2023-04-05T03:25:38;13.4;;;5.7;;
60718;SDS011;46567;51.660;5.824;2023-04-05T03:30:38;9.3;;;5.5;;
60718;SDS011;46567;51.660;5.824;2023-04-05T03:35:38;7.9;;;5.3;;
60718;SDS011;46567;51.660;5.824;2023-04-05T03:40:38;9.7;;;5.8;;
60718;SDS011;46567;51.660;5.824;2023-04-05T03:45:38;11.2;;;5.3;;
60718;SDS011;46567;51.660;5.824;2023-04-05T03:50:38;8.7;;;5.6;;
60718;SDS011;46567;51.660;5.824;2023-04-05T03:55:38;9.1;;;5.6;;
60718;SDS011;46567;51.660;5.824;2023-04-05T04:00:38;9.7;;;5.2;;
60718;SDS011;46567;51.660;5.824;2023-04-05T04:05:38;9.3;;;5.5;;
60718;SDS011;46567;51.660;5.824;2023-04-05T04:10:38;9.8;;;5.6;;
60718;SDS011;46567;51.660;5.824;2023-04-05T04:15:38;9.7;;;5.8;;
60718;SDS011;46567;51.660;5.824;2023-04-05T04:20:38;9.6;;;5.1;;
60718;SDS011;46567;51.660;5.824;2023-04-05T04:25:38;10.1;;;5.5;;
60718;SDS011;46567;51.660;5.824;2023-04-05T04:30:38;9.3;;;5.9;;
60718;SDS011;46567;51.660;5.824;2023-04-05T04:35:38;9.8;;;6.3;;
60718;SDS011;46567;51.660;5.824;2023-04-05T04:40:38;9.8;;;5.4;;
60718;SDS011;46567;51.660;5.824;2023-04-05T04:45:38;11.8;;;6.6;;
60718;SDS011;46567;51.660;5.824;2023-04-05T04:50:38;11.5;;;6.0;;
60718;SDS011;46567;51.660;5.824;2023-04-05T04:55:38;10.7;;;6.4;;
60718;SDS011;46567;51.660;5.824;2023-04-05T05:05:41;10.8;;;6.8;;
60718;SDS011;46567;51.660;5.824;2023-04-05T05:10:38;10.9;;;5.9;;
60718;SDS011;46567;51.660;5.824;2023-04-05T05:15:38;9.2;;;6.4;;
60718;SDS011;46567;51.660;5.824;2023-04-05T05:20:38;15.5;;;6.0;;
60718;SDS011;46567;51.660;5.824;2023-04-05T05:25:38;8.9;;;5.3;;
60718;SDS011;46567;51.660;5.824;2023-04-05T05:30:38;11.9;;;6.8;;
60718;SDS011;46567;51.660;5.824;2023-04-05T05:35:38;13.5;;;7.0;;
60718;SDS011;46567;51.660;5.824;2023-04-05T05:40:38;12.4;;;7.1;;
60718;SDS011;46567;51.660;5.824;2023-04-05T05:45:38;13.1;;;7.1;;
60718;SDS011;46567;51.660;5.824;2023-04-05T05:50:38;13.6;;;8.1;;
60718;SDS011;46567;51.660;5.824;2023-04-05T05:55:38;12.6;;;7.5;;
60718;SDS011;46567;51.660;5.824;2023-04-05T06:00:38;11.0;;;7.2;;
60718;SDS011;46567;51.660;5.824;2023-04-05T06:05:38;14.8;;;7.4;;
60718;SDS011;46567;51.660;5.824;2023-04-05T06:10:38;14.1;;;7.2;;
60718;SDS011;46567;51.660;5.824;2023-04-05T06:15:38;9.7;;;6.5;;
60718;SDS011;46567;51.660;5.824;2023-04-05T06:20:38;12.2;;;6.9;;
60718;SDS011;46567;51.660;5.824;2023-04-05T06:25:38;11.9;;;6.7;;
60718;SDS011;46567;51.660;5.824;2023-04-05T06:30:38;11.2;;;6.4;;
60718;SDS011;46567;51.660;5.824;2023-04-05T06:35:38;11.4;;;6.7;;
60718;SDS011;46567;51.660;5.824;2023-04-05T06:40:38;9.6;;;5.8;;
60718;SDS011;46567;51.660;5.824;2023-04-05T06:45:38;12.7;;;7.0;;
60718;SDS011;46567;51.660;5.824;2023-04-05T06:50:38;12.6;;;6.7;;
60718;SDS011;46567;51.660;5.824;2023-04-05T06:55:38;10.7;;;6.9;;
60718;SDS011;46567;51.660;5.824;2023-04-05T07:00:38;12.3;;;6.7;;
60718;SDS011;46567;51.660;5.824;2023-04-05T07:05:38;12.5;;;6.7;;
60718;SDS011;46567;51.660;5.824;2023-04-05T07:10:38;10.2;;;7.2;;
60718;SDS011;46567;51.660;5.824;2023-04-05T07:15:38;11.0;;;7.1;;
60718;SDS011;46567;51.660;5.824;2023-04-05T07:20:38;11.2;;;6.8;;
60718;SDS011;46567;51.660;5.824;2023-04-05T07:25:39;13.2;;;7.1;;
60718;SDS011;46567;51.660;5.824;2023-04-05T07:30:38;10.1;;;6.5;;
60718;SDS011;46567;51.660;5.824;2023-04-05T07:35:38;11.8;;;7.4;;
60718;SDS011;46567;51.660;5.824;2023-04-05T07:40:38;10.3;;;6.4;;
60718;SDS011;46567;51.660;5.824;2023-04-05T07:45:38;10.3;;;7.0;;
60718;SDS011;46567;51.660;5.824;2023-04-05T07:50:38;10.1;;;7.0;;
60718;SDS011;46567;51.660;5.824;2023-04-05T07:55:38;9.0;;;6.7;;
60718;SDS011;46567;51.660;5.824;2023-04-05T08:00:38;10.8;;;7.3;;
60718;SDS011;46567;51.660;5.824;2023-04-05T08:05:38;11.5;;;7.1;;
60718;SDS011;46567;51.660;5.824;2023-04-05T08:10:38;11.9;;;7.6;;
60718;SDS011;46567;51.660;5.824;2023-04-05T08:15:39;11.0;;;7.4;;
60718;SDS011;46567;51.660;5.824;2023-04-05T08:20:38;12.2;;;7.2;;
60718;SDS011;46567;51.660;5.824;2023-04-05T08:25:38;10.3;;;6.7;;
60718;SDS011;46567;51.660;5.824;2023-04-05T08:30:38;11.8;;;7.1;;
60718;SDS011;46567;51.660;5.824;2023-04-05T08:35:38;10.5;;;7.5;;
60718;SDS011;46567;51.660;5.824;2023-04-05T08:40:44;11.3;;;7.0;;
60718;SDS011;46567;51.660;5.824;2023-04-05T08:45:41;10.9;;;7.1;;
60718;SDS011;46567;51.660;5.824;2023-04-05T08:50:38;11.1;;;6.0;;
60718;SDS011;46567;51.660;5.824;2023-04-05T08:55:38;9.3;;;6.1;;
60718;SDS011;46567;51.660;5.824;2023-04-05T09:00:38;10.4;;;5.7;;
60718;SDS011;46567;51.660;5.824;2023-04-05T09:05:38;10.6;;;6.0;;
60718;SDS011;46567;51.660;5.824;2023-04-05T09:10:38;10.8;;;5.9;;
60718;SDS011;46567;51.660;5.824;2023-04-05T09:15:38;9.0;;;6.2;;
60718;SDS011;46567;51.660;5.824;2023-04-05T09:20:38;6.3;;;5.1;;
60718;SDS011;46567;51.660;5.824;2023-04-05T09:25:38;7.9;;;4.5;;
60718;SDS011;46567;51.660;5.824;2023-04-05T09:30:38;5.7;;;4.2;;
60718;SDS011;46567;51.660;5.824;2023-04-05T09:35:38;8.2;;;4.6;;
60718;SDS011;46567;51.660;5.824;2023-04-05T09:40:44;7.5;;;4.7;;
60718;SDS011;46567;51.660;5.824;2023-04-05T09:45:38;9.0;;;4.5;;
60718;SDS011;46567;51.660;5.824;2023-04-05T09:50:38;5.6;;;4.3;;
60718;SDS011;46567;51.660;5.824;2023-04-05T09:55:38;7.5;;;4.9;;
60718;SDS011;46567;51.660;5.824;2023-04-05T10:00:38;8.6;;;5.4;;
60718;SDS011;46567;51.660;5.824;2023-04-05T10:05:38;8.3;;;4.8;;
60718;SDS011;46567;51.660;5.824;2023-04-05T10:10:46;8.6;;;5.3;;
60718;SDS011;46567;51.660;5.824;2023-04-05T10:15:38;5.7;;;4.8;;
60718;SDS011;46567;51.660;5.824;2023-04-05T10:20:39;7.5;;;5.3;;
60718;SDS011;46567;51.660;5.824;2023-04-05T10:25:45;6.5;;;5.4;;
60718;SDS011;46567;51.660;5.824;2023-04-05T10:30:43;6.7;;;5.0;;
60718;SDS011;46567;51.660;5.824;2023-04-05T10:35:49;8.7;;;5.1;;
60718;SDS011;46567;51.660;5.824;2023-04-05T10:40:38;9.1;;;5.5;;
60718;SDS011;46567;51.660;5.824;2023-04-05T10:45:38;8.3;;;4.9;;
60718;SDS011;46567;51.660;5.824;2023-04-05T10:50:38;8.1;;;5.4;;
60718;SDS011;46567;51.660;5.824;2023-04-05T10:55:38;5.9;;;4.6;;
60718;SDS011;46567;51.660;5.824;2023-04-05T11:00:38;6.5;;;4.4;;
60718;SDS011;46567;51.660;5.824;2023-04-05T11:05:38;6.9;;;4.1;;
60718;SDS011;46567;51.660;5.824;2023-04-05T11:10:38;7.2;;;4.8;;
60718;SDS011;46567;51.660;5.824;2023-04-05T11:15:40;6.7;;;4.3;;
60718;SDS011;46567;51.660;5.824;2023-04-05T11:20:39;5.2;;;4.2;;
60718;SDS011;46567;51.660;5.824;2023-04-05T11:25:38;6.9;;;4.8;;
60718;SDS011;46567;51.660;5.824;2023-04-05T11:30:46;7.3;;;4.9;;
60718;SDS011;46567;51.660;5.824;2023-04-05T11:35:38;6.3;;;4.9;;
60718;SDS011;46567;51.660;5.824;2023-04-05T11:40:38;7.6;;;4.7;;
60718;SDS011;46567;51.660;5.824;2023-04-05T11:45:39;7.3;;;4.9;;
60718;SDS011;46567;51.660;5.824;2023-04-05T11:50:39;5.9;;;4.6;;
60718;SDS011;46567;51.660;5.824;2023-04-05T11:55:38;6.6;;;4.9;;
60718;SDS011;46567;51.660;5.824;2023-04-05T12:00:38;8.2;;;5.1;;
60718;SDS011;46567;51.660;5.824;2023-04-05T12:05:43;6.9;;;4.9;;
60718;SDS011;46567;51.660;5.824;2023-04-05T12:10:38;6.5;;;4.9;;
60718;SDS011;46567;51.660;5.824;2023-04-05T12:15:38;5.5;;;4.4;;
60718;SDS011;46567;51.660;5.824;2023-04-05T12:20:38;7.1;;;4.8;;
60718;SDS011;46567;51.660;5.824;2023-04-05T12:25:38;6.7;;;4.9;;
60718;SDS011;46567;51.660;5.824;2023-04-05T12:30:47;8.0;;;4.9;;
60718;SDS011;46567;51.660;5.824;2023-04-05T12:35:38;7.2;;;4.8;;
60718;SDS011;46567;51.660;5.824;2023-04-05T12:40:39;6.3;;;4.9;;
60718;SDS011;46567;51.660;5.824;2023-04-05T12:45:38;6.3;;;4.9;;
60718;SDS011;46567;51.660;5.824;2023-04-05T12:50:41;6.0;;;4.7;;
60718;SDS011;46567;51.660;5.824;2023-04-05T12:55:41;6.9;;;4.8;;
60718;SDS011;46567;51.660;5.824;2023-04-05T13:00:38;6.0;;;4.9;;
60718;SDS011;46567;51.660;5.824;2023-04-05T13:05:38;5.8;;;4.8;;
60718;SDS011;46567;51.660;5.824;2023-04-05T13:10:38;7.5;;;5.0;;
60718;SDS011;46567;51.660;5.824;2023-04-05T13:15:38;7.1;;;4.6;;
60718;SDS011;46567;51.660;5.824;2023-04-05T13:20:38;5.8;;;4.5;;
60718;SDS011;46567;51.660;5.824;2023-04-05T13:25:38;8.2;;;4.9;;
60718;SDS011;46567;51.660;5.824;2023-04-05T13:30:38;5.5;;;4.6;;
60718;SDS011;46567;51.660;5.824;2023-04-05T13:35:38;7.0;;;4.5;;
60718;SDS011;46567;51.660;5.824;2023-04-05T13:40:38;6.9;;;5.1;;
60718;SDS011;46567;51.660;5.824;2023-04-05T13:45:38;7.0;;;5.0;;
60718;SDS011;46567;51.660;5.824;2023-04-05T13:50:38;6.9;;;5.0;;
60718;SDS011;46567;51.660;5.824;2023-04-05T13:55:38;6.1;;;4.8;;
60718;SDS011;46567;51.660;5.824;2023-04-05T14:00:38;5.7;;;4.5;;
60718;SDS011;46567;51.660;5.824;2023-04-05T14:05:38;6.8;;;4.8;;
60718;SDS011;46567;51.660;5.824;2023-04-05T14:10:38;6.4;;;4.3;;
60718;SDS011;46567;51.660;5.824;2023-04-05T14:15:38;7.0;;;5.0;;
60718;SDS011;46567;51.660;5.824;2023-04-05T14:20:38;8.4;;;4.8;;
60718;SDS011;46567;51.660;5.824;2023-04-05T14:25:38;8.0;;;4.8;;
60718;SDS011;46567;51.660;5.824;2023-04-05T14:30:38;7.4;;;5.2;;
60718;SDS011;46567;51.660;5.824;2023-04-05T14:35:38;7.9;;;4.8;;
60718;SDS011;46567;51.660;5.824;2023-04-05T14:40:38;6.4;;;4.9;;
60718;SDS011;46567;51.660;5.824;2023-04-05T14:45:38;8.1;;;5.3;;
60718;SDS011;46567;51.660;5.824;2023-04-05T14:50:38;7.6;;;5.4;;
60718;SDS011;46567;51.660;5.824;2023-04-05T14:55:38;7.1;;;5.2;;
60718;SDS011;46567;51.660;5.824;2023-04-05T15:00:38;11.0;;;5.4;;
60718;SDS011;46567;51.660;5.824;2023-04-05T15:05:38;6.6;;;4.9;;
60718;SDS011;46567;51.660;5.824;2023-04-05T15:10:38;6.7;;;5.4;;
60718;SDS011;46567;51.660;5.824;2023-04-05T15:15:38;7.7;;;4.9;;
60718;SDS011;46567;51.660;5.824;2023-04-05T15:20:38;5.8;;;4.9;;
60718;SDS011;46567;51.660;5.824;2023-04-05T15:25:38;7.5;;;5.4;;
60718;SDS011;46567;51.660;5.824;2023-04-05T15:30:38;6.8;;;5.1;;
60718;SDS011;46567;51.660;5.824;2023-04-05T15:35:38;8.3;;;5.1;;
60718;SDS011;46567;51.660;5.824;2023-04-05T15:40:38;8.7;;;5.6;;
60718;SDS011;46567;51.660;5.824;2023-04-05T15:45:38;6.2;;;5.1;;
60718;SDS011;46567;51.660;5.824;2023-04-05T15:50:38;10.1;;;5.3;;
60718;SDS011;46567;51.660;5.824;2023-04-05T15:55:38;7.6;;;5.6;;
60718;SDS011;46567;51.660;5.824;2023-04-05T16:00:38;6.8;;;5.5;;
60718;SDS011;46567;51.660;5.824;2023-04-05T16:05:38;6.4;;;5.1;;
60718;SDS011;46567;51.660;5.824;2023-04-05T16:10:38;7.2;;;5.6;;
60718;SDS011;46567;51.660;5.824;2023-04-05T16:15:38;8.6;;;5.4;;
60718;SDS011;46567;51.660;5.824;2023-04-05T16:20:38;6.5;;;5.0;;
60718;SDS011;46567;51.660;5.824;2023-04-05T16:25:38;7.0;;;5.0;;
60718;SDS011;46567;51.660;5.824;2023-04-05T16:30:38;8.0;;;5.7;;
60718;SDS011;46567;51.660;5.824;2023-04-05T16:35:38;6.4;;;5.4;;
60718;SDS011;46567;51.660;5.824;2023-04-05T16:40:38;7.3;;;5.3;;
60718;SDS011;46567;51.660;5.824;2023-04-05T16:45:38;6.7;;;4.9;;
60718;SDS011;46567;51.660;5.824;2023-04-05T16:50:38;7.4;;;5.1;;
60718;SDS011;46567;51.660;5.824;2023-04-05T16:55:38;6.3;;;5.6;;
60718;SDS011;46567;51.660;5.824;2023-04-05T17:00:38;8.8;;;5.9;;
60718;SDS011;46567;51.660;5.824;2023-04-05T17:05:38;9.3;;;5.4;;
60718;SDS011;46567;51.660;5.824;2023-04-05T17:10:38;7.9;;;6.2;;
60718;SDS011;46567;51.660;5.824;2023-04-05T17:15:38;8.7;;;5.8;;
60718;SDS011;46567;51.660;5.824;2023-04-05T17:20:38;8.2;;;5.7;;
60718;SDS011;46567;51.660;5.824;2023-04-05T17:25:38;8.9;;;5.4;;
60718;SDS011;46567;51.660;5.824;2023-04-05T17:30:38;7.2;;;5.4;;
60718;SDS011;46567;51.660;5.824;2023-04-05T17:35:38;8.1;;;5.8;;
60718;SDS011;46567;51.660;5.824;2023-04-05T17:40:38;8.8;;;6.5;;
60718;SDS011;46567;51.660;5.824;2023-04-05T17:45:38;9.0;;;5.7;;
60718;SDS011;46567;51.660;5.824;2023-04-05T17:50:38;6.5;;;5.5;;
60718;SDS011;46567;51.660;5.824;2023-04-05T17:55:38;8.9;;;6.0;;
60718;SDS011;46567;51.660;5.824;2023-04-05T18:00:38;6.9;;;5.8;;
60718;SDS011;46567;51.660;5.824;2023-04-05T18:05:38;7.8;;;6.3;;
60718;SDS011;46567;51.660;5.824;2023-04-05T18:10:38;7.3;;;5.5;;
60718;SDS011;46567;51.660;5.824;2023-04-05T18:15:38;8.9;;;6.4;;
60718;SDS011;46567;51.660;5.824;2023-04-05T18:20:38;8.4;;;6.1;;
60718;SDS011;46567;51.660;5.824;2023-04-05T18:25:38;8.5;;;5.9;;
60718;SDS011;46567;51.660;5.824;2023-04-05T18:30:38;11.2;;;6.6;;
60718;SDS011;46567;51.660;5.824;2023-04-05T18:35:38;11.1;;;7.0;;
60718;SDS011;46567;51.660;5.824;2023-04-05T18:40:38;7.9;;;6.3;;
60718;SDS011;46567;51.660;5.824;2023-04-05T18:45:38;9.3;;;6.6;;
60718;SDS011;46567;51.660;5.824;2023-04-05T18:50:38;9.3;;;6.4;;
60718;SDS011;46567;51.660;5.824;2023-04-05T18:55:38;7.8;;;6.3;;
60718;SDS011;46567;51.660;5.824;2023-04-05T19:00:38;9.9;;;6.6;;
60718;SDS011;46567;51.660;5.824;2023-04-05T19:05:38;11.4;;;7.2;;
60718;SDS011;46567;51.660;5.824;2023-04-05T19:10:38;9.1;;;6.7;;
60718;SDS011;46567;51.660;5.824;2023-04-05T19:15:38;9.2;;;6.2;;
60718;SDS011;46567;51.660;5.824;2023-04-05T19:20:38;9.1;;;6.9;;
60718;SDS011;46567;51.660;5.824;2023-04-05T19:25:38;10.3;;;7.1;;
60718;SDS011;46567;51.660;5.824;2023-04-05T19:30:38;8.5;;;6.1;;
60718;SDS011;46567;51.660;5.824;2023-04-05T19:35:38;9.4;;;6.5;;
60718;SDS011;46567;51.660;5.824;2023-04-05T19:40:38;9.8;;;6.3;;
60718;SDS011;46567;51.660;5.824;2023-04-05T19:45:38;13.1;;;7.5;;
60718;SDS011;46567;51.660;5.824;2023-04-05T19:50:47;13.3;;;8.1;;
60718;SDS011;46567;51.660;5.824;2023-04-05T19:55:39;10.2;;;6.9;;
60718;SDS011;46567;51.660;5.824;2023-04-05T20:00:40;8.6;;;6.1;;
60718;SDS011;46567;51.660;5.824;2023-04-05T20:06:02;10.5;;;7.1;;
60718;SDS011;46567;51.660;5.824;2023-04-05T20:10:42;14.2;;;7.3;;
60718;SDS011;46567;51.660;5.824;2023-04-05T20:15:38;11.4;;;6.8;;
60718;SDS011;46567;51.660;5.824;2023-04-05T20:20:39;11.9;;;6.5;;
60718;SDS011;46567;51.660;5.824;2023-04-05T20:25:44;11.9;;;7.0;;
60718;SDS011;46567;51.660;5.824;2023-04-05T20:30:38;10.7;;;7.2;;
60718;SDS011;46567;51.660;5.824;2023-04-05T20:35:38;10.6;;;7.4;;
60718;SDS011;46567;51.660;5.824;2023-04-05T20:40:38;13.1;;;7.4;;
60718;SDS011;46567;51.660;5.824;2023-04-05T20:45:38;9.6;;;7.7;;
60718;SDS011;46567;51.660;5.824;2023-04-05T20:50:38;11.7;;;7.5;;
60718;SDS011;46567;51.660;5.824;2023-04-05T20:55:38;9.6;;;6.6;;
60718;SDS011;46567;51.660;5.824;2023-04-05T21:00:38;12.0;;;7.3;;
60718;SDS011;46567;51.660;5.824;2023-04-05T21:05:38;10.1;;;7.0;;
60718;SDS011;46567;51.660;5.824;2023-04-05T21:10:38;12.8;;;7.7;;
60718;SDS011;46567;51.660;5.824;2023-04-05T21:15:38;16.9;;;8.5;;
60718;SDS011;46567;51.660;5.824;2023-04-05T21:20:38;12.1;;;7.5;;
60718;SDS011;46567;51.660;5.824;2023-04-05T21:25:38;19.3;;;7.7;;
60718;SDS011;46567;51.660;5.824;2023-04-05T21:30:38;11.0;;;8.0;;
60718;SDS011;46567;51.660;5.824;2023-04-05T21:35:39;12.0;;;8.1;;
60718;SDS011;46567;51.660;5.824;2023-04-05T21:40:38;11.3;;;7.5;;
60718;SDS011;46567;51.660;5.824;2023-04-05T21:45:38;13.4;;;8.2;;
60718;SDS011;46567;51.660;5.824;2023-04-05T21:50:38;11.7;;;8.1;;
60718;SDS011;46567;51.660;5.824;2023-04-05T21:55:38;11.7;;;7.7;;
60718;SDS011;46567;51.660;5.824;2023-04-05T22:00:38;14.0;;;8.4;;
60718;SDS011;46567;51.660;5.824;2023-04-05T22:05:38;13.0;;;8.7;;
60718;SDS011;46567;51.660;5.824;2023-04-05T22:10:38;13.9;;;9.1;;
60718;SDS011;46567;51.660;5.824;2023-04-05T22:15:38;13.1;;;8.7;;
60718;SDS011;46567;51.660;5.824;2023-04-05T22:20:38;12.5;;;8.9;;
60718;SDS011;46567;51.660;5.824;2023-04-05T22:25:38;11.0;;;8.3;;
60718;SDS011;46567;51.660;5.824;2023-04-05T22:30:38;11.7;;;8.9;;
60718;SDS011;46567;51.660;5.824;2023-04-05T22:35:39;11.6;;;8.5;;
60718;SDS011;46567;51.660;5.824;2023-04-05T22:40:38;11.3;;;7.9;;
60718;SDS011;46567;51.660;5.824;2023-04-05T22:45:38;10.9;;;7.8;;
60718;SDS011;46567;51.660;5.824;2023-04-05T22:50:38;12.5;;;7.7;;
60718;SDS011;46567;51.660;5.824;2023-04-05T22:55:38;11.0;;;7.3;;
60718;SDS011;46567;51.660;5.824;2023-04-05T23:00:38;11.7;;;7.7;;
60718;SDS011;46567;51.660;5.824;2023-04-05T23:05:38;13.2;;;7.5;;
60718;SDS011;46567;51.660;5.824;2023-04-05T23:10:38;12.4;;;8.3;;
60718;SDS011;46567;51.660;5.824;2023-04-05T23:15:38;14.9;;;8.8;;
60718;SDS011;46567;51.660;5.824;2023-04-05T23:20:38;14.2;;;8.9;;
60718;SDS011;46567;51.660;5.824;2023-04-05T23:25:38;14.9;;;8.1;;
60718;SDS011;46567;51.660;5.824;2023-04-05T23:30:38;12.5;;;8.1;;
60718;SDS011;46567;51.660;5.824;2023-04-05T23:35:38;16.1;;;8.8;;
60718;SDS011;46567;51.660;5.824;2023-04-05T23:40:38;14.4;;;9.4;;
60718;SDS011;46567;51.660;5.824;2023-04-05T23:45:38;14.4;;;9.6;;
60718;SDS011;46567;51.660;5.824;2023-04-05T23:50:38;12.7;;;8.5;;
60718;SDS011;46567;51.660;5.824;2023-04-05T23:55:38;17.2;;;9.3;;
